Time;durP1;ratioP1;P1;durP2;ratioP2;P2;SDS_P1;SDS_P2;PMS_P1;PMS_P2;Temp;Humidity;BMP_temperature;BMP_pressure;BME280_temperature;BME280_humidity;BME280_pressure;Samples;Min_cycle;Max_cycle;Signal;HPM_P1;HPM_P2
2022/03/04 00:01:29;;;;;;;0.30;0.30;;;0.30;83.00;;;;;;5036237;28;21020;-76
2022/03/04 00:03:56;;;;;;;0.30;0.30;;;0.30;83.70;;;;;;5036740;28;20857;-76
2022/03/04 00:06:23;;;;;;;0.50;0.50;;;0.30;84.20;;;;;;5036452;28;20640;-75
2022/03/04 00:08:51;;;;;;;0.73;0.73;;;0.30;86.60;;;;;;5035875;28;21008;-76
2022/03/04 00:11:18;;;;;;;1.03;0.60;;;0.30;86.90;;;;;;5036097;28;20477;-75
2022/03/04 00:13:45;;;;;;;0.73;0.73;;;0.30;85.90;;;;;;5036012;28;20455;-75
2022/03/04 00:16:12;;;;;;;0.30;0.30;;;0.30;86.30;;;;;;5036487;28;20425;-76
2022/03/04 00:18:39;;;;;;;0.47;0.47;;;0.20;87.00;;;;;;5036461;28;20473;-76
2022/03/04 00:21:07;;;;;;;0.30;0.30;;;0.20;87.70;;;;;;5036663;28;20482;-76
2022/03/04 00:23:34;;;;;;;0.30;0.30;;;0.20;88.40;;;;;;5036211;28;20451;-76
2022/03/04 00:26:02;;;;;;;1.90;1.80;;;0.20;88.00;;;;;;5036282;28;20450;-76
2022/03/04 00:28:29;;;;;;;0.30;0.30;;;0.20;86.70;;;;;;5036109;28;20478;-76
2022/03/04 00:30:55;;;;;;;1.03;1.00;;;0.30;83.10;;;;;;5036371;28;20458;-76
2022/03/04 00:33:22;;;;;;;0.60;0.60;;;0.40;82.00;;;;;;5035569;28;20449;-76
2022/03/04 00:35:49;;;;;;;0.30;0.30;;;0.50;79.30;;;;;;5035717;28;20893;-76
2022/03/04 00:38:16;;;;;;;0.87;0.87;;;0.50;80.40;;;;;;5035950;28;20482;-76
2022/03/04 00:40:43;;;;;;;0.30;0.30;;;0.60;80.00;;;;;;5035099;28;20474;-76
2022/03/04 00:43:11;;;;;;;1.47;1.47;;;0.60;82.20;;;;;;5035950;28;20435;-76
2022/03/04 00:45:37;;;;;;;2.43;1.53;;;0.60;79.90;;;;;;5035340;28;20451;-76
2022/03/04 00:48:05;;;;;;;0.30;0.30;;;0.60;80.20;;;;;;5131349;22;20506;-76
2022/03/04 00:50:31;;;;;;;0.30;0.30;;;0.60;81.00;;;;;;5034851;28;20430;-76
2022/03/04 00:53:01;;;;;;;0.50;0.50;;;0.60;84.10;;;;;;5034635;28;20446;-76
2022/03/04 00:55:28;;;;;;;0.30;0.30;;;0.60;82.30;;;;;;5035131;28;20439;-76
2022/03/04 00:57:54;;;;;;;0.30;0.20;;;0.60;80.60;;;;;;5034353;28;20470;-76
2022/03/04 01:00:22;;;;;;;0.60;0.60;;;0.60;80.80;;;;;;5034076;28;20483;-76
2022/03/04 01:02:49;;;;;;;0.50;0.50;;;0.60;83.50;;;;;;5034565;28;20446;-76
2022/03/04 01:05:16;;;;;;;0.50;0.50;;;0.60;82.80;;;;;;5034129;28;20960;-76
2022/03/04 01:07:43;;;;;;;0.33;0.27;;;0.50;80.60;;;;;;5034771;28;20472;-76
2022/03/04 01:10:10;;;;;;;1.03;0.93;;;0.60;80.40;;;;;;5034794;28;20817;-76
2022/03/04 01:12:37;;;;;;;0.30;0.30;;;0.60;79.40;;;;;;5034301;28;20455;-76
2022/03/04 01:15:04;;;;;;;0.50;0.40;;;0.60;80.60;;;;;;5034619;28;20447;-76
2022/03/04 01:17:32;;;;;;;0.30;0.30;;;0.50;81.50;;;;;;5035113;28;20454;-76
2022/03/04 01:19:59;;;;;;;0.30;0.20;;;0.50;80.90;;;;;;5035838;28;20482;-75
2022/03/04 01:22:26;;;;;;;1.90;0.60;;;0.50;84.90;;;;;;5034637;28;20933;-76
2022/03/04 01:24:53;;;;;;;0.43;0.43;;;0.50;84.60;;;;;;5035373;28;20459;-76
2022/03/04 01:27:20;;;;;;;0.40;0.40;;;0.40;85.60;;;;;;5034611;28;20869;-76
2022/03/04 01:29:47;;;;;;;0.40;0.40;;;0.40;85.60;;;;;;5034993;28;20470;-76
2022/03/04 01:32:13;;;;;;;0.33;0.33;;;0.30;87.20;;;;;;5035658;28;20451;-76
2022/03/04 01:34:42;;;;;;;0.50;0.50;;;0.20;88.00;;;;;;5035197;28;20451;-76
2022/03/04 01:37:10;;;;;;;0.70;0.70;;;0.20;88.80;;;;;;5035313;28;20428;-76
2022/03/04 01:39:40;;;;;;;0.73;0.53;;;0.20;88.20;;;;;;5035474;28;20470;-75
2022/03/04 01:42:08;;;;;;;1.73;1.63;;;0.20;87.00;;;;;;5034545;28;20492;-76
2022/03/04 01:44:35;;;;;;;0.30;0.20;;;0.10;88.20;;;;;;5035618;28;20821;-76
2022/03/04 01:47:01;;;;;;;0.40;0.40;;;0.10;89.90;;;;;;5034517;28;20446;-76
2022/03/04 01:49:28;;;;;;;0.30;0.30;;;0.10;87.50;;;;;;4990467;28;1292275;-76
2022/03/04 01:51:57;;;;;;;0.60;0.60;;;0.10;89.10;;;;;;5035610;28;20184;-76
2022/03/04 01:54:23;;;;;;;0.30;0.30;;;0.20;88.20;;;;;;5035821;28;20439;-76
2022/03/04 01:56:50;;;;;;;0.30;0.30;;;0.20;86.40;;;;;;5034875;28;20450;-76
2022/03/04 01:59:17;;;;;;;1.70;1.43;;;0.20;86.50;;;;;;5035330;28;20462;-76
2022/03/04 02:01:44;;;;;;;0.30;0.30;;;0.20;86.70;;;;;;5034787;28;20827;-75
2022/03/04 02:04:15;;;;;;;0.30;0.30;;;0.20;82.30;;;;;;5037581;28;20451;-76
2022/03/04 02:06:48;;;;;;;0.30;0.30;;;0.20;81.90;;;;;;5036451;28;20445;-76
2022/03/04 02:09:19;;;;;;;0.30;0.30;;;0.20;81.20;;;;;;5036152;28;20470;-76
2022/03/04 02:12:08;;;;;;;0.50;0.50;;;0.20;81.70;;;;;;5037507;28;20518;-76
2022/03/04 02:14:37;;;;;;;0.30;0.30;;;0.20;81.40;;;;;;5036632;28;20455;-76
2022/03/04 02:17:05;;;;;;;0.70;0.50;;;0.20;83.20;;;;;;5036830;28;20447;-76
2022/03/04 02:19:32;;;;;;;0.43;0.43;;;0.30;84.80;;;;;;5037107;28;20486;-76
2022/03/04 02:22:29;;;;;;;0.30;0.30;;;0.30;85.70;;;;;;5035522;28;20528;-76
2022/03/04 02:24:56;;;;;;;0.50;0.50;;;0.20;85.30;;;;;;5030945;28;20442;-76
2022/03/04 02:27:23;;;;;;;0.83;0.80;;;0.10;86.60;;;;;;5035256;28;20449;-76
2022/03/04 02:29:50;;;;;;;0.30;0.30;;;0.00;87.30;;;;;;5035199;28;20463;-76
2022/03/04 02:32:17;;;;;;;0.90;0.90;;;0.00;88.10;;;;;;5036460;28;20439;-76
2022/03/04 02:34:43;;;;;;;0.70;0.70;;;-0.10;88.40;;;;;;5035253;28;20816;-76
2022/03/04 02:37:10;;;;;;;0.60;0.60;;;-0.20;89.10;;;;;;5035449;28;20446;-76
2022/03/04 02:39:38;;;;;;;1.67;1.13;;;-0.20;89.50;;;;;;5036813;28;20458;-76
2022/03/04 02:42:05;;;;;;;0.60;0.60;;;-0.30;90.20;;;;;;5036615;28;20478;-76
2022/03/04 02:44:32;;;;;;;0.30;0.30;;;-0.30;90.40;;;;;;5036614;28;20446;-76
2022/03/04 02:46:59;;;;;;;0.30;0.20;;;-0.40;90.70;;;;;;5036864;28;20973;-76
2022/03/04 02:49:25;;;;;;;0.40;0.30;;;-0.40;91.00;;;;;;5037500;28;20861;-76
2022/03/04 02:51:52;;;;;;;0.50;0.50;;;-0.40;91.60;;;;;;5035741;28;20446;-76
2022/03/04 02:54:19;;;;;;;0.30;0.30;;;-0.50;92.00;;;;;;5036797;28;20447;-76
2022/03/04 02:56:47;;;;;;;0.30;0.30;;;-0.50;92.30;;;;;;5035637;28;20458;-76
2022/03/04 02:59:14;;;;;;;1.47;1.37;;;-0.50;91.10;;;;;;5036065;28;21041;-76
2022/03/04 03:01:41;;;;;;;0.40;0.40;;;-0.50;91.40;;;;;;5037351;28;20486;-76
2022/03/04 03:04:08;;;;;;;0.33;0.33;;;-0.50;92.00;;;;;;5041876;28;20442;-76
2022/03/04 03:06:35;;;;;;;0.50;0.50;;;-0.40;91.90;;;;;;5041760;28;20459;-77
2022/03/04 03:09:01;;;;;;;0.30;0.30;;;-0.50;91.50;;;;;;5040433;28;20497;-76
2022/03/04 03:11:28;;;;;;;0.40;0.40;;;-0.50;91.90;;;;;;5039873;28;20922;-76
2022/03/04 03:13:56;;;;;;;0.30;0.30;;;-0.50;92.50;;;;;;5040370;28;20453;-76
2022/03/04 03:16:23;;;;;;;0.70;0.60;;;-0.50;92.50;;;;;;5040074;28;20454;-76
2022/03/04 03:18:50;;;;;;;0.70;0.70;;;-0.50;92.90;;;;;;5040609;28;20529;-76
2022/03/04 03:21:16;;;;;;;0.40;0.40;;;-0.50;93.00;;;;;;5040641;28;20482;-76
2022/03/04 03:23:45;;;;;;;0.30;0.30;;;-0.50;92.90;;;;;;5040035;28;20972;-76
2022/03/04 03:26:11;;;;;;;0.30;0.20;;;-0.50;92.90;;;;;;5039389;28;20451;-76
2022/03/04 03:28:38;;;;;;;1.27;1.27;;;-0.50;91.50;;;;;;5040647;28;20493;-76
2022/03/04 03:31:07;;;;;;;0.30;0.30;;;-0.50;91.10;;;;;;5039308;28;20443;-76
2022/03/04 03:33:36;;;;;;;0.30;0.20;;;-0.50;90.90;;;;;;5040426;28;20504;-76
2022/03/04 03:36:03;;;;;;;1.03;1.03;;;-0.60;91.80;;;;;;5040074;28;20478;-76
2022/03/04 03:38:30;;;;;;;0.40;0.37;;;-0.60;92.40;;;;;;5039838;28;20478;-76
2022/03/04 03:40:56;;;;;;;0.30;0.30;;;-0.60;92.10;;;;;;5045275;28;20478;-76
2022/03/04 03:43:23;;;;;;;0.60;0.50;;;-0.60;92.50;;;;;;5045833;28;20421;-77
2022/03/04 03:45:50;;;;;;;0.87;0.87;;;-0.60;92.60;;;;;;5045640;28;20443;-76
2022/03/04 03:48:18;;;;;;;0.30;0.27;;;-0.60;92.80;;;;;;5043484;28;20816;-76
2022/03/04 03:50:45;;;;;;;0.30;0.30;;;-0.70;92.90;;;;;;5043669;28;20900;-76
2022/03/04 03:53:11;;;;;;;0.67;0.67;;;-0.70;93.00;;;;;;5043195;28;20450;-76
2022/03/04 03:55:39;;;;;;;1.13;1.03;;;-0.70;93.60;;;;;;5042402;28;20413;-76
2022/03/04 03:58:05;;;;;;;1.17;1.17;;;-0.80;93.80;;;;;;5041480;28;20474;-76
2022/03/04 04:00:32;;;;;;;0.30;0.30;;;-0.80;93.40;;;;;;5041414;28;20442;-76
2022/03/04 04:02:59;;;;;;;0.30;0.30;;;-0.90;94.00;;;;;;5043053;28;20446;-76
2022/03/04 04:05:28;;;;;;;0.63;0.63;;;-0.90;93.60;;;;;;5042207;28;20433;-77
2022/03/04 04:07:54;;;;;;;0.30;0.30;;;-0.90;94.40;;;;;;5042736;28;20865;-76
2022/03/04 04:10:22;;;;;;;0.30;0.30;;;-1.00;94.10;;;;;;5042327;28;20438;-76
2022/03/04 04:12:49;;;;;;;0.30;0.30;;;-1.00;94.40;;;;;;5041943;28;20473;-76
2022/03/04 04:15:15;;;;;;;0.73;0.73;;;-1.00;94.80;;;;;;5041441;28;20442;-77
2022/03/04 04:17:42;;;;;;;0.30;0.30;;;-1.00;94.70;;;;;;5042039;28;20443;-77
2022/03/04 04:20:10;;;;;;;0.30;0.30;;;-1.00;94.90;;;;;;5043152;28;20938;-76
2022/03/04 04:22:39;;;;;;;2.30;1.37;;;-1.00;95.20;;;;;;5043810;28;20459;-77
2022/03/04 04:25:06;;;;;;;0.40;0.40;;;-1.00;96.00;;;;;;5043570;28;20789;-77
2022/03/04 04:27:33;;;;;;;0.37;0.37;;;-1.00;95.50;;;;;;5042371;28;20450;-76
2022/03/04 04:30:00;;;;;;;0.47;0.47;;;-1.00;95.90;;;;;;5041257;28;20477;-76
2022/03/04 04:32:27;;;;;;;0.57;0.57;;;-1.10;96.70;;;;;;5042045;28;20919;-77
2022/03/04 04:34:53;;;;;;;0.60;0.60;;;-1.10;96.80;;;;;;5038700;28;20417;-77
2022/03/04 04:37:20;;;;;;;1.07;0.70;;;-1.10;97.50;;;;;;5042459;28;20799;-77
2022/03/04 04:39:48;;;;;;;0.60;0.60;;;-1.10;97.80;;;;;;5043152;28;20521;-77
2022/03/04 04:42:15;;;;;;;0.30;0.30;;;-1.10;97.60;;;;;;5043126;28;20480;-77
2022/03/04 04:44:42;;;;;;;0.80;0.60;;;-1.20;96.90;;;;;;5041572;28;20936;-77
2022/03/04 04:47:09;;;;;;;0.30;0.30;;;-1.20;96.30;;;;;;5043115;28;20825;-77
2022/03/04 04:49:37;;;;;;;0.30;0.30;;;-1.20;97.60;;;;;;5042643;28;20496;-78
2022/03/04 04:52:05;;;;;;;4.63;0.50;;;-1.20;97.50;;;;;;5044278;28;20435;-78
2022/03/04 04:54:32;;;;;;;0.40;0.40;;;-1.20;98.00;;;;;;5043624;28;20473;-78
2022/03/04 04:57:00;;;;;;;0.30;0.30;;;-1.20;98.10;;;;;;5044139;28;20457;-78
2022/03/04 04:59:27;;;;;;;0.30;0.30;;;-1.20;98.70;;;;;;5044034;28;20474;-76
2022/03/04 05:01:54;;;;;;;0.40;0.40;;;-1.20;98.70;;;;;;5043716;28;20508;-78
2022/03/04 05:04:21;;;;;;;0.80;0.77;;;-1.20;97.80;;;;;;5043149;28;20454;-78
2022/03/04 05:06:54;;;;;;;0.30;0.30;;;-1.20;98.30;;;;;;5045753;28;20478;-77
2022/03/04 05:09:27;;;;;;;0.40;0.40;;;-1.20;97.70;;;;;;5043940;28;20451;-78
2022/03/04 05:11:54;;;;;;;0.30;0.20;;;-1.20;97.40;;;;;;5043483;28;20442;-78
2022/03/04 05:14:25;;;;;;;0.30;0.30;;;-1.20;98.10;;;;;;5042610;28;20457;-78
2022/03/04 05:16:55;;;;;;;0.30;0.30;;;-1.20;98.10;;;;;;5043788;28;20506;-78
2022/03/04 05:19:22;;;;;;;0.30;0.30;;;-1.20;97.90;;;;;;5041909;28;20504;-78
2022/03/04 05:21:55;;;;;;;0.53;0.53;;;-1.30;98.00;;;;;;5043482;28;20449;-78
2022/03/04 05:24:25;;;;;;;0.30;0.30;;;-1.40;98.10;;;;;;5044156;28;20502;-78
2022/03/04 05:26:52;;;;;;;1.17;1.17;;;-1.40;98.70;;;;;;5038136;28;20413;-78
2022/03/04 05:29:19;;;;;;;0.30;0.30;;;-1.50;99.30;;;;;;5043245;28;20473;-78
2022/03/04 05:31:47;;;;;;;1.90;1.80;;;-1.40;99.90;;;;;;5043599;28;20453;-78
2022/03/04 05:34:15;;;;;;;0.30;0.30;;;-1.50;99.90;;;;;;5043455;28;20931;-78
2022/03/04 05:36:42;;;;;;;0.30;0.30;;;-1.50;99.90;;;;;;5043251;28;20439;-78
2022/03/04 05:39:09;;;;;;;0.30;0.30;;;-1.50;99.90;;;;;;5041643;28;20524;-78
2022/03/04 05:41:35;;;;;;;0.80;0.50;;;-1.50;99.90;;;;;;5038652;28;20492;-76
2022/03/04 05:44:03;;;;;;;0.30;0.30;;;-1.50;99.90;;;;;;5036185;28;20458;-76
2022/03/04 05:46:30;;;;;;;0.30;0.20;;;-1.50;99.90;;;;;;5035147;28;20455;-76
2022/03/04 05:49:00;;;;;;;0.30;0.30;;;-1.50;99.90;;;;;;5041383;28;20486;-78
2022/03/04 05:51:28;;;;;;;0.53;0.53;;;-1.60;99.90;;;;;;5039826;28;20443;-78
2022/03/04 05:53:54;;;;;;;0.40;0.40;;;-1.50;99.90;;;;;;5039086;28;20949;-78
2022/03/04 05:56:21;;;;;;;0.60;0.47;;;-1.50;99.90;;;;;;5040960;28;20432;-78
2022/03/04 05:58:48;;;;;;;0.70;0.50;;;-1.50;99.90;;;;;;5040795;28;20471;-78
2022/03/04 06:01:15;;;;;;;2.10;2.00;;;-1.50;99.90;;;;;;5041203;28;20451;-78
2022/03/04 06:03:43;;;;;;;0.30;0.30;;;-1.50;99.90;;;;;;5041680;28;20939;-78
2022/03/04 06:06:13;;;;;;;0.50;0.50;;;-1.50;99.90;;;;;;5038481;28;20430;-76
2022/03/04 06:08:40;;;;;;;1.37;0.93;;;-1.50;99.90;;;;;;5036187;28;20840;-76
2022/03/04 06:11:08;;;;;;;0.37;0.37;;;-1.50;99.90;;;;;;5037660;28;20442;-78
2022/03/04 06:13:35;;;;;;;0.73;0.73;;;-1.40;99.90;;;;;;5037904;28;20484;-78
2022/03/04 06:16:02;;;;;;;0.70;0.70;;;-1.40;99.90;;;;;;5037978;28;20462;-78
2022/03/04 06:18:29;;;;;;;0.40;0.30;;;-1.50;99.90;;;;;;5039159;28;20466;-76
2022/03/04 06:20:56;;;;;;;0.40;0.40;;;-1.50;99.90;;;;;;5040891;28;20947;-77
2022/03/04 06:23:24;;;;;;;0.30;0.30;;;-1.40;99.90;;;;;;5037274;28;20482;-77
2022/03/04 06:25:50;;;;;;;0.40;0.40;;;-1.40;99.90;;;;;;5034692;28;20462;-77
2022/03/04 06:28:17;;;;;;;0.30;0.30;;;-1.40;99.90;;;;;;5034705;28;20532;-77
2022/03/04 06:30:44;;;;;;;2.57;2.47;;;-1.40;99.90;;;;;;5033800;28;20454;-77
2022/03/04 06:35:55;;;;;;;0.30;0.30;;;-1.30;99.90;;;;;;5034359;28;20811;-77
2022/03/04 06:38:23;;;;;;;0.73;0.73;;;-1.40;99.90;;;;;;5037246;28;20459;-77
2022/03/04 06:40:51;;;;;;;0.30;0.30;;;-1.30;99.90;;;;;;5038470;28;20534;-77
2022/03/04 06:43:18;;;;;;;0.60;0.60;;;-1.30;99.90;;;;;;5037860;28;20486;-77
2022/03/04 06:45:47;;;;;;;0.30;0.30;;;-1.30;99.90;;;;;;5038478;28;20429;-77
2022/03/04 06:48:15;;;;;;;0.30;0.27;;;-1.30;99.90;;;;;;5038091;28;20462;-77
2022/03/04 06:50:42;;;;;;;0.57;0.57;;;-1.30;99.90;;;;;;5038251;28;20435;-77
2022/03/04 06:53:09;;;;;;;0.33;0.33;;;-1.20;99.90;;;;;;5040025;28;20446;-77
2022/03/04 06:55:37;;;;;;;0.60;0.60;;;-1.20;99.90;;;;;;5040621;28;20433;-76
2022/03/04 06:58:04;;;;;;;0.40;0.40;;;-1.10;99.90;;;;;;5040438;28;20466;-77
2022/03/04 07:00:31;;;;;;;0.30;0.30;;;-1.00;99.90;;;;;;5045273;28;20429;-76
2022/03/04 07:02:57;;;;;;;0.30;0.30;;;-1.00;99.90;;;;;;5046502;28;20452;-77
2022/03/04 07:05:25;;;;;;;0.30;0.30;;;-0.90;99.90;;;;;;5045771;28;20458;-77
2022/03/04 07:07:53;;;;;;;2.00;0.83;;;-0.90;99.90;;;;;;5043980;28;20530;-77
2022/03/04 07:10:21;;;;;;;0.30;0.30;;;-0.80;99.90;;;;;;5042725;28;20964;-77
2022/03/04 07:12:50;;;;;;;0.30;0.30;;;-0.80;99.90;;;;;;5043513;28;20455;-77
2022/03/04 07:15:17;;;;;;;0.30;0.30;;;-0.80;99.90;;;;;;5043858;28;20450;-77
2022/03/04 07:17:44;;;;;;;0.70;0.70;;;-0.80;99.90;;;;;;5043899;28;20444;-77
2022/03/04 07:20:11;;;;;;;0.30;0.30;;;-0.70;99.90;;;;;;5040885;28;20477;-77
2022/03/04 07:22:39;;;;;;;0.40;0.40;;;-0.70;99.90;;;;;;5036957;28;20478;-77
2022/03/04 07:25:08;;;;;;;0.30;0.30;;;-0.60;99.90;;;;;;5037122;28;20433;-77
2022/03/04 07:27:36;;;;;;;1.60;0.53;;;-0.60;99.90;;;;;;5036738;28;20425;-77
2022/03/04 07:30:05;;;;;;;0.50;0.50;;;-0.60;99.90;;;;;;5038624;28;20443;-77
2022/03/04 07:32:32;;;;;;;0.30;0.30;;;-0.60;99.90;;;;;;5039208;28;20451;-77
2022/03/04 07:34:59;;;;;;;0.77;0.50;;;-0.50;99.90;;;;;;5039712;28;20450;-77
2022/03/04 07:37:26;;;;;;;0.30;0.30;;;-0.60;99.90;;;;;;5038343;28;20973;-77
2022/03/04 07:39:53;;;;;;;0.90;0.60;;;-0.60;99.90;;;;;;5038442;28;20463;-77
2022/03/04 07:42:21;;;;;;;1.07;1.03;;;-0.60;99.90;;;;;;5038319;28;20453;-77
2022/03/04 07:44:47;;;;;;;0.33;0.33;;;-0.50;99.90;;;;;;5038092;28;20455;-77
2022/03/04 07:47:15;;;;;;;0.30;0.30;;;-0.40;99.90;;;;;;5038670;28;20442;-77
2022/03/04 07:49:42;;;;;;;0.67;0.67;;;-0.30;99.90;;;;;;5037815;28;20489;-77
2022/03/04 07:52:09;;;;;;;0.67;0.47;;;-0.30;99.90;;;;;;5038904;28;20427;-77
2022/03/04 07:54:36;;;;;;;0.40;0.30;;;-0.20;99.90;;;;;;5039618;28;20431;-77
2022/03/04 07:57:04;;;;;;;1.23;0.73;;;-0.10;99.90;;;;;;5039894;28;20437;-77
2022/03/04 07:59:31;;;;;;;0.30;0.30;;;-0.10;99.90;;;;;;5040246;28;20616;-77
2022/03/04 08:01:57;;;;;;;0.30;0.30;;;0.00;99.90;;;;;;5040717;28;20930;-77
2022/03/04 08:04:25;;;;;;;0.37;0.37;;;0.10;99.90;;;;;;5039830;28;20413;-77
2022/03/04 08:06:52;;;;;;;0.30;0.30;;;0.10;99.90;;;;;;5041511;28;20470;-77
2022/03/04 08:09:19;;;;;;;0.73;0.73;;;0.20;99.90;;;;;;5040917;28;21004;-77
2022/03/04 08:11:46;;;;;;;1.67;0.87;;;0.30;99.90;;;;;;5039997;28;20497;-76
2022/03/04 08:14:13;;;;;;;1.23;1.23;;;0.40;99.90;;;;;;5038955;28;20500;-77
2022/03/04 08:16:40;;;;;;;5.03;0.97;;;0.50;99.90;;;;;;5038324;28;20439;-77
2022/03/04 08:19:07;;;;;;;2.50;1.33;;;0.60;99.90;;;;;;5038376;28;20830;-77
2022/03/04 08:21:35;;;;;;;0.30;0.30;;;0.70;99.90;;;;;;5038381;28;20461;-77
2022/03/04 08:24:02;;;;;;;0.30;0.30;;;0.80;99.90;;;;;;5036658;28;20484;-77
2022/03/04 08:26:29;;;;;;;1.07;1.07;;;1.00;99.30;;;;;;5035733;28;20478;-76
2022/03/04 08:28:55;;;;;;;0.70;0.60;;;1.10;99.20;;;;;;5036008;28;20975;-77
2022/03/04 08:31:22;;;;;;;2.30;0.70;;;1.20;99.50;;;;;;5035774;28;20442;-77
2022/03/04 08:33:49;;;;;;;0.40;0.40;;;1.40;98.40;;;;;;5035638;28;20442;-77
2022/03/04 08:36:16;;;;;;;0.50;0.50;;;1.50;98.50;;;;;;5035008;28;20461;-76
2022/03/04 08:38:44;;;;;;;1.00;1.00;;;1.70;97.90;;;;;;5036006;28;20977;-77
2022/03/04 08:41:10;;;;;;;0.83;0.83;;;2.00;97.30;;;;;;5035957;28;20446;-76
2022/03/04 08:43:38;;;;;;;0.30;0.30;;;2.30;95.40;;;;;;5036017;28;20482;-77
2022/03/04 08:46:05;;;;;;;0.40;0.40;;;2.50;94.50;;;;;;5036097;28;20457;-76
2022/03/04 08:48:32;;;;;;;0.73;0.67;;;2.90;93.80;;;;;;5036511;28;20483;-76
2022/03/04 08:50:59;;;;;;;0.73;0.73;;;3.20;93.30;;;;;;5037033;28;20454;-76
2022/03/04 08:53:27;;;;;;;0.53;0.53;;;3.40;91.60;;;;;;5036065;28;20443;-76
2022/03/04 08:55:56;;;;;;;0.57;0.57;;;3.50;91.30;;;;;;5036550;28;20462;-76
2022/03/04 08:58:23;;;;;;;1.00;1.00;;;3.80;90.50;;;;;;5035252;28;21020;-76
2022/03/04 09:00:50;;;;;;;0.70;0.70;;;4.10;88.20;;;;;;5035252;28;20447;-76
2022/03/04 09:03:16;;;;;;;1.50;0.70;;;4.40;85.10;;;;;;5035624;28;20477;-76
2022/03/04 09:05:43;;;;;;;0.87;0.87;;;4.80;83.20;;;;;;5036262;28;20469;-76
2022/03/04 09:08:10;;;;;;;0.73;0.47;;;5.30;80.00;;;;;;5035031;28;20471;-76
2022/03/04 09:10:36;;;;;;;0.50;0.50;;;6.00;76.80;;;;;;5035659;28;20431;-76
2022/03/04 09:13:05;;;;;;;0.60;0.60;;;6.90;74.90;;;;;;5035465;28;20813;-76
2022/03/04 09:15:32;;;;;;;0.70;0.60;;;8.00;69.50;;;;;;5035168;28;20473;-76
2022/03/04 09:17:59;;;;;;;0.83;0.80;;;9.10;64.50;;;;;;5034095;28;20489;-76
2022/03/04 09:20:26;;;;;;;0.63;0.63;;;10.20;59.30;;;;;;5034045;28;20454;-76
2022/03/04 09:22:53;;;;;;;2.10;1.20;;;11.10;55.90;;;;;;5034002;28;20478;-75
2022/03/04 09:25:20;;;;;;;0.77;0.77;;;12.00;53.00;;;;;;5034247;28;20485;-76
2022/03/04 09:27:48;;;;;;;2.17;1.53;;;13.20;49.00;;;;;;5033879;28;20427;-76
2022/03/04 09:30:17;;;;;;;2.07;1.53;;;13.90;47.20;;;;;;5033961;28;20769;-77
2022/03/04 09:32:43;;;;;;;4.70;2.30;;;14.80;45.80;;;;;;5033565;28;20437;-76
2022/03/04 09:35:10;;;;;;;7.30;1.93;;;15.70;43.40;;;;;;5033855;28;20435;-76
2022/03/04 09:37:37;;;;;;;1.47;1.20;;;16.50;41.50;;;;;;5033655;28;20431;-78
2022/03/04 09:40:05;;;;;;;6.80;3.27;;;16.80;39.40;;;;;;5033765;28;20489;-76
2022/03/04 09:42:34;;;;;;;3.60;1.70;;;17.50;38.80;;;;;;5033501;28;20466;-76
2022/03/04 09:45:01;;;;;;;6.53;1.93;;;18.00;36.20;;;;;;5033745;28;20439;-79
2022/03/04 09:47:30;;;;;;;6.60;3.20;;;18.30;36.00;;;;;;5033716;28;20441;-76
2022/03/04 09:49:58;;;;;;;5.33;2.23;;;18.60;36.10;;;;;;5033402;28;20482;-76
2022/03/04 09:52:25;;;;;;;2.07;1.63;;;19.10;33.40;;;;;;5033578;28;20434;-76
2022/03/04 09:54:53;;;;;;;2.53;1.37;;;18.70;33.20;;;;;;5033536;28;20430;-76
2022/03/04 09:57:21;;;;;;;4.87;2.33;;;18.00;33.80;;;;;;5033189;28;20906;-75
2022/03/04 09:59:47;;;;;;;6.30;1.90;;;17.70;33.80;;;;;;5033413;28;20473;-76
2022/03/04 10:02:16;;;;;;;6.07;2.77;;;17.60;35.20;;;;;;5033504;28;20802;-76
2022/03/04 10:04:44;;;;;;;3.43;2.23;;;17.90;35.20;;;;;;5033436;28;20462;-76
2022/03/04 10:07:12;;;;;;;7.10;2.87;;;18.10;33.00;;;;;;5033087;28;20446;-76
2022/03/04 10:09:42;;;;;;;1.53;1.37;;;17.60;32.70;;;;;;5033345;28;20510;-76
2022/03/04 10:12:10;;;;;;;3.73;1.97;;;17.00;33.00;;;;;;5032397;28;20442;-76
2022/03/04 10:14:57;;;;;;;6.77;2.27;;;16.80;33.10;;;;;;5033350;28;20434;-77
2022/03/04 10:17:23;;;;;;;3.27;1.97;;;16.60;33.00;;;;;;5032990;28;20433;-76
2022/03/04 10:19:54;;;;;;;1.67;1.30;;;16.40;34.80;;;;;;5033263;28;20466;-76
2022/03/04 10:22:21;;;;;;;3.60;2.30;;;16.10;31.50;;;;;;5032994;28;20911;-76
2022/03/04 10:24:48;;;;;;;1.90;1.23;;;15.90;31.70;;;;;;5033191;28;20489;-76
2022/03/04 10:27:17;;;;;;;2.57;2.10;;;15.30;32.50;;;;;;5033214;28;20761;-76
2022/03/04 10:29:46;;;;;;;3.13;1.17;;;15.90;31.90;;;;;;5033165;28;20466;-76
2022/03/04 10:32:15;;;;;;;2.60;1.20;;;16.40;31.60;;;;;;5033131;28;20806;-76
2022/03/04 10:34:52;;;;;;;2.27;1.43;;;17.60;30.00;;;;;;5033112;28;20438;-76
2022/03/04 10:37:21;;;;;;;7.17;2.67;;;17.80;29.70;;;;;;5032855;28;21012;-76
2022/03/04 10:39:59;;;;;;;1.67;1.57;;;18.10;28.70;;;;;;5033140;28;20462;-76
2022/03/04 10:42:43;;;;;;;1.37;1.10;;;18.70;30.40;;;;;;5032752;28;20796;-76
2022/03/04 10:45:12;;;;;;;3.00;1.63;;;19.60;29.00;;;;;;5033087;28;20433;-76
2022/03/04 10:47:44;;;;;;;5.60;1.90;;;20.30;28.30;;;;;;5033028;28;20438;-76
2022/03/04 10:50:12;;;;;;;1.60;1.50;;;20.70;28.40;;;;;;5032637;28;20478;-76
2022/03/04 10:52:57;;;;;;;6.43;2.50;;;20.90;28.10;;;;;;5033069;28;20465;-76
2022/03/04 10:55:43;;;;;;;5.10;2.27;;;20.40;28.00;;;;;;5031312;28;20549;-76
2022/03/04 10:58:17;;;;;;;7.67;2.60;;;20.80;27.90;;;;;;5032822;28;20471;-76
2022/03/04 11:00:47;;;;;;;3.33;2.03;;;21.00;27.60;;;;;;5032921;28;20429;-76
2022/03/04 11:03:19;;;;;;;2.37;2.17;;;20.30;27.00;;;;;;5032813;28;20493;-77
2022/03/04 11:05:46;;;;;;;3.73;2.93;;;19.50;27.00;;;;;;5032842;28;20441;-75
2022/03/04 11:08:14;;;;;;;1.20;1.10;;;18.40;26.80;;;;;;5032770;28;20471;-76
2022/03/04 11:10:41;;;;;;;4.00;2.03;;;17.40;28.30;;;;;;5032546;28;20938;-76
2022/03/04 11:13:10;;;;;;;4.60;2.20;;;16.70;28.70;;;;;;5032779;28;20477;-76
2022/03/04 11:15:38;;;;;;;2.93;1.37;;;15.30;29.50;;;;;;5032804;28;20798;-75
2022/03/04 11:18:08;;;;;;;2.10;1.53;;;14.40;30.00;;;;;;5032295;28;20987;-75
2022/03/04 11:20:35;;;;;;;7.70;2.00;;;13.40;32.00;;;;;;5032751;28;20437;-75
2022/03/04 11:23:03;;;;;;;2.30;1.27;;;12.40;31.90;;;;;;5032707;28;21001;-75
2022/03/04 11:25:37;;;;;;;1.30;1.10;;;11.50;33.40;;;;;;5036291;28;20438;-75
2022/03/04 11:28:11;;;;;;;1.70;1.00;;;10.80;33.90;;;;;;5036164;28;20477;-75
2022/03/04 11:30:41;;;;;;;0.97;0.97;;;10.50;35.20;;;;;;5036730;28;20431;-76
2022/03/04 11:33:20;;;;;;;1.73;1.10;;;10.30;34.30;;;;;;5036123;28;20505;-75
2022/03/04 11:36:09;;;;;;;1.00;0.67;;;9.80;35.90;;;;;;5035998;28;20435;-74
2022/03/04 11:39:01;;;;;;;1.17;0.80;;;9.50;37.40;;;;;;5035759;28;20471;-75
2022/03/04 11:42:00;;;;;;;3.87;0.87;;;9.40;38.20;;;;;;5011697;28;20446;-75
2022/03/04 11:44:27;;;;;;;0.90;0.47;;;9.20;38.60;;;;;;5035921;28;20489;-75
2022/03/04 11:46:59;;;;;;;1.03;0.60;;;9.30;38.10;;;;;;5036001;28;20439;-75
2022/03/04 11:49:47;;;;;;;0.50;0.50;;;9.30;38.10;;;;;;5035529;28;20496;-75
2022/03/04 11:52:24;;;;;;;0.40;0.40;;;9.40;38.20;;;;;;5035953;28;20442;-75
2022/03/04 11:55:26;;;;;;;3.03;1.33;;;9.30;38.70;;;;;;5035932;28;20427;-75
2022/03/04 11:58:05;;;;;;;1.47;0.60;;;9.20;38.20;;;;;;5035882;28;20458;-75
2022/03/04 12:00:37;;;;;;;0.40;0.40;;;9.00;38.40;;;;;;5035387;28;20465;-75
2022/03/04 12:03:21;;;;;;;1.20;0.70;;;9.00;39.70;;;;;;5035623;28;20423;-75
2022/03/04 12:06:00;;;;;;;1.60;1.23;;;8.70;39.00;;;;;;5036222;28;20427;-75
2022/03/04 12:08:37;;;;;;;1.63;0.50;;;8.70;39.80;;;;;;5035121;28;21025;-75
2022/03/04 12:11:04;;;;;;;1.33;1.27;;;8.80;39.00;;;;;;5035551;28;20438;-75
2022/03/04 12:13:41;;;;;;;1.07;0.50;;;8.70;39.00;;;;;;5035827;28;20423;-75
2022/03/04 12:16:09;;;;;;;2.40;0.60;;;8.70;38.50;;;;;;5035493;28;20497;-75
2022/03/04 12:18:38;;;;;;;0.70;0.70;;;8.60;39.30;;;;;;5035649;28;20467;-75
2022/03/04 12:21:24;;;;;;;1.20;1.10;;;8.20;40.20;;;;;;5036330;28;20434;-75
2022/03/04 12:23:54;;;;;;;8.63;0.97;;;8.20;41.00;;;;;;5035845;28;20501;-75
2022/03/04 12:26:23;;;;;;;1.20;1.10;;;8.10;40.60;;;;;;5035360;28;20926;-75
2022/03/04 12:29:00;;;;;;;1.63;0.90;;;8.10;41.20;;;;;;5034816;28;21080;-75
2022/03/04 12:31:27;;;;;;;1.67;1.57;;;8.10;40.50;;;;;;5035616;28;20427;-75
2022/03/04 12:33:57;;;;;;;1.27;1.20;;;8.10;38.10;;;;;;5035726;28;20423;-75
2022/03/04 12:36:30;;;;;;;0.60;0.50;;;8.10;38.50;;;;;;5034467;28;20427;-75
2022/03/04 12:38:58;;;;;;;0.50;0.50;;;8.10;39.10;;;;;;5035141;28;20478;-76
2022/03/04 12:41:27;;;;;;;1.33;0.40;;;8.00;39.20;;;;;;5035263;28;20430;-75
2022/03/04 12:43:57;;;;;;;2.77;0.60;;;8.00;39.80;;;;;;5035163;28;20473;-75
2022/03/04 12:46:26;;;;;;;0.53;0.53;;;7.90;40.00;;;;;;5035600;28;20427;-75
2022/03/04 12:48:54;;;;;;;1.27;1.17;;;7.80;40.90;;;;;;5035060;28;20499;-75
2022/03/04 12:51:23;;;;;;;1.13;1.13;;;7.80;39.80;;;;;;5035523;28;20457;-75
2022/03/04 12:53:50;;;;;;;4.53;0.60;;;7.70;39.90;;;;;;5035207;28;20435;-75
2022/03/04 12:56:18;;;;;;;0.40;0.40;;;7.60;40.90;;;;;;5035124;28;20930;-75
2022/03/04 12:58:47;;;;;;;1.53;0.80;;;7.60;40.70;;;;;;5034822;28;20474;-76
2022/03/04 13:01:16;;;;;;;0.60;0.60;;;7.50;40.00;;;;;;5035163;28;20431;-75